Time;durP1;ratioP1;P1;durP2;ratioP2;P2;SDS_P1;SDS_P2;PMS_P1;PMS_P2;Temp;Humidity;BMP_temperature;BMP_pressure;BME280_temperature;BME280_humidity;BME280_pressure;Samples;Min_cycle;Max_cycle;Signal;HPM_P1;HPM_P2
2023/11/17 00:00:31;;;;;;;5.27;3.20;;;5.80;99.90;;;;;;4144746;28;20022;-61
2023/11/17 00:02:32;;;;;;;3.10;2.90;;;5.70;99.90;;;;;;4145011;28;20099;-57
2023/11/17 00:04:33;;;;;;;4.73;3.43;;;5.70;99.90;;;;;;4144967;28;20544;-61
2023/11/17 00:06:34;;;;;;;6.00;3.70;;;5.70;99.90;;;;;;4146087;28;20428;-58
2023/11/17 00:08:36;;;;;;;6.90;3.40;;;5.70;99.90;;;;;;4143884;28;20038;-61
2023/11/17 00:10:38;;;;;;;9.20;3.90;;;5.60;99.90;;;;;;4145805;28;20045;-60
2023/11/17 00:12:41;;;;;;;6.23;3.70;;;5.60;99.90;;;;;;4144710;28;20080;-61
2023/11/17 00:14:42;;;;;;;8.40;3.57;;;5.60;99.90;;;;;;4144737;28;20104;-60
2023/11/17 00:16:44;;;;;;;6.10;3.30;;;5.70;99.90;;;;;;4144787;28;20073;-59
2023/11/17 00:18:45;;;;;;;4.83;3.33;;;5.70;99.90;;;;;;4142852;28;20137;-61
2023/11/17 00:20:46;;;;;;;4.97;3.30;;;5.70;99.90;;;;;;4145169;28;20068;-60
2023/11/17 00:22:48;;;;;;;4.03;3.03;;;5.70;99.90;;;;;;4144463;28;20030;-61
2023/11/17 00:24:49;;;;;;;6.07;3.87;;;5.70;99.90;;;;;;4145976;28;20413;-56
2023/11/17 00:26:50;;;;;;;4.20;2.53;;;5.60;99.90;;;;;;4144419;28;20034;-61
2023/11/17 00:28:53;;;;;;;4.30;2.83;;;5.60;99.90;;;;;;4145557;28;20045;-59
2023/11/17 00:30:54;;;;;;;4.80;3.17;;;5.70;99.90;;;;;;4144430;28;20018;-61
2023/11/17 00:32:55;;;;;;;4.10;2.90;;;5.60;99.90;;;;;;4145895;28;20034;-61
2023/11/17 00:34:56;;;;;;;3.57;3.00;;;5.60;99.90;;;;;;4144639;28;20046;-61
2023/11/17 00:36:58;;;;;;;3.33;2.40;;;5.70;99.90;;;;;;4146349;28;20425;-61
2023/11/17 00:39:01;;;;;;;7.93;3.10;;;5.60;99.90;;;;;;4144585;28;20030;-60
2023/11/17 00:41:04;;;;;;;6.13;3.67;;;5.70;99.90;;;;;;4145189;28;20068;-61
2023/11/17 00:43:05;;;;;;;5.67;3.80;;;5.70;99.90;;;;;;4144811;28;20050;-60
2023/11/17 00:45:07;;;;;;;5.10;3.47;;;5.60;99.90;;;;;;4145193;28;20433;-61
2023/11/17 00:47:09;;;;;;;5.23;3.60;;;5.50;99.90;;;;;;4144679;28;20106;-57
2023/11/17 00:49:12;;;;;;;5.83;3.77;;;5.40;99.90;;;;;;4144648;28;20053;-59
2023/11/17 00:51:18;;;;;;;5.17;4.20;;;5.40;99.90;;;;;;4145129;28;20354;-58
2023/11/17 00:53:23;;;;;;;5.90;4.47;;;5.30;99.90;;;;;;4144699;28;20433;-60
2023/11/17 00:55:25;;;;;;;7.83;4.17;;;5.20;99.90;;;;;;4145524;28;20042;-58
2023/11/17 00:57:26;;;;;;;6.17;4.30;;;5.10;99.90;;;;;;4144448;28;20168;-60
2023/11/17 00:59:27;;;;;;;6.33;4.47;;;5.00;99.90;;;;;;4145129;28;20486;-60
2023/11/17 01:01:28;;;;;;;6.93;4.43;;;5.00;99.90;;;;;;4144083;28;20399;-60
2023/11/17 01:03:29;;;;;;;6.20;4.23;;;4.90;99.90;;;;;;4143348;28;20112;-57
2023/11/17 01:05:31;;;;;;;6.97;4.57;;;4.90;99.90;;;;;;4142851;28;20799;-59
2023/11/17 01:07:32;;;;;;;7.37;4.93;;;4.90;99.90;;;;;;4145267;28;20088;-59
2023/11/17 01:09:33;;;;;;;7.17;4.57;;;4.80;99.90;;;;;;4143963;28;20033;-59
2023/11/17 01:11:34;;;;;;;6.10;4.37;;;4.80;99.90;;;;;;4145303;28;20487;-60
2023/11/17 01:13:35;;;;;;;7.47;4.80;;;4.70;99.90;;;;;;4143596;28;20502;-56
2023/11/17 01:17:47;;;;;;;5.90;4.20;;;4.60;99.90;;;;;;4037236;26;20110;-62
2023/11/17 01:19:48;;;;;;;8.83;4.90;;;4.60;99.90;;;;;;4111227;28;20767;-62
2023/11/17 01:21:49;;;;;;;6.90;4.93;;;4.60;99.90;;;;;;4102111;28;20039;-58
2023/11/17 01:23:50;;;;;;;8.03;5.30;;;4.60;99.90;;;;;;4095372;28;20055;-51
2023/11/17 01:25:51;;;;;;;7.83;5.27;;;4.60;99.90;;;;;;4096149;28;20078;-60
2023/11/17 01:27:53;;;;;;;7.67;5.20;;;4.60;99.90;;;;;;4095700;28;20051;-59
2023/11/17 01:29:54;;;;;;;14.30;6.73;;;4.60;99.90;;;;;;4096849;28;20086;-61
2023/11/17 01:31:55;;;;;;;7.97;5.27;;;4.60;99.90;;;;;;4095133;28;20102;-58
2023/11/17 01:33:56;;;;;;;7.97;4.93;;;4.60;99.90;;;;;;4096457;29;20674;-61
2023/11/17 01:35:58;;;;;;;8.60;5.83;;;4.60;99.90;;;;;;4095504;29;20086;-58
2023/11/17 01:38:01;;;;;;;16.73;7.97;;;4.60;99.90;;;;;;4096343;29;20039;-61
2023/11/17 01:40:05;;;;;;;13.60;6.70;;;4.60;99.90;;;;;;4095439;28;20106;-61
2023/11/17 01:42:06;;;;;;;11.40;6.30;;;4.60;99.90;;;;;;4095579;28;20282;-58
2023/11/17 01:44:07;;;;;;;9.07;6.17;;;4.60;99.90;;;;;;4096192;29;20027;-60
2023/11/17 01:46:08;;;;;;;10.13;6.53;;;4.60;99.90;;;;;;4095213;29;20757;-62
2023/11/17 01:48:11;;;;;;;9.33;5.77;;;4.50;99.90;;;;;;4098284;28;20321;-59
2023/11/17 01:50:14;;;;;;;7.40;5.60;;;4.60;99.90;;;;;;4111519;28;20257;-61
2023/11/17 01:52:15;;;;;;;8.73;5.77;;;4.60;99.90;;;;;;4105952;28;20098;-56
2023/11/17 01:54:16;;;;;;;7.97;5.83;;;4.60;99.90;;;;;;4095022;28;20332;-53
2023/11/17 01:56:19;;;;;;;12.00;6.53;;;4.60;99.90;;;;;;4096476;29;20019;-58
2023/11/17 01:58:21;;;;;;;8.90;6.20;;;4.70;99.90;;;;;;4094821;28;20328;-59
2023/11/17 02:00:22;;;;;;;9.00;6.53;;;4.70;99.90;;;;;;4096154;28;20039;-58
2023/11/17 02:02:23;;;;;;;11.57;6.77;;;4.70;99.90;;;;;;4095082;28;20039;-57
2023/11/17 02:04:25;;;;;;;10.67;6.77;;;4.70;99.90;;;;;;4096436;29;20192;-62
2023/11/17 02:06:35;;;;;;;9.20;6.27;;;4.70;99.90;;;;;;4095362;28;20031;-60
2023/11/17 02:08:46;;;;;;;9.85;6.35;;;4.70;99.90;;;;;;4095905;28;20454;-59
2023/11/17 02:11:04;;;;;;;9.13;5.90;;;4.70;99.90;;;;;;4094862;28;20035;-59
2023/11/17 02:13:10;;;;;;;10.83;6.57;;;4.60;99.90;;;;;;4096075;28;20075;-60
2023/11/17 02:15:17;;;;;;;8.87;6.40;;;4.50;99.90;;;;;;4095357;29;20666;-59
2023/11/17 02:17:28;;;;;;;11.83;7.03;;;4.50;99.90;;;;;;4094833;29;20050;-62
2023/11/17 02:19:42;;;;;;;8.80;6.60;;;4.40;99.90;;;;;;4094942;28;20094;-61
2023/11/17 02:21:45;;;;;;;9.03;6.20;;;4.50;99.90;;;;;;4096072;28;20130;-59
2023/11/17 02:23:48;;;;;;;11.00;6.87;;;4.50;99.90;;;;;;4095237;29;20868;-59
2023/11/17 02:26:15;;;;;;;11.03;7.07;;;4.50;99.90;;;;;;4099302;28;20316;-58
2023/11/17 02:28:41;;;;;;;9.97;6.27;;;4.50;99.90;;;;;;4110284;28;20110;-60
2023/11/17 02:30:43;;;;;;;10.20;6.37;;;4.60;99.90;;;;;;4111561;28;20043;-58
2023/11/17 02:32:45;;;;;;;9.73;6.27;;;4.50;99.90;;;;;;4111031;28;20598;-59
2023/11/17 02:34:47;;;;;;;11.43;6.90;;;4.50;99.90;;;;;;4111751;28;20047;-62
2023/11/17 02:36:49;;;;;;;10.13;7.10;;;4.50;99.90;;;;;;4110893;28;20098;-60
2023/11/17 02:39:05;;;;;;;12.20;7.67;;;4.50;99.90;;;;;;4113883;28;20055;-59
2023/11/17 02:41:08;;;;;;;9.27;6.93;;;4.50;99.90;;;;;;4113259;28;20054;-53
2023/11/17 02:43:12;;;;;;;10.70;6.17;;;4.40;99.90;;;;;;4114569;28;20676;-62
2023/11/17 02:45:19;;;;;;;14.00;6.77;;;4.40;99.90;;;;;;4114009;28;20315;-61
2023/11/17 02:47:27;;;;;;;10.33;6.57;;;4.50;99.90;;;;;;4114934;28;20331;-60
2023/11/17 02:49:42;;;;;;;8.80;6.10;;;4.50;99.90;;;;;;4113584;28;20055;-61
2023/11/17 02:51:50;;;;;;;8.60;5.80;;;4.50;99.90;;;;;;4109453;28;20281;-60
2023/11/17 02:53:51;;;;;;;8.80;5.87;;;4.60;99.90;;;;;;4101607;28;20833;-61
2023/11/17 02:55:57;;;;;;;9.03;5.67;;;4.70;99.90;;;;;;4113734;28;20292;-60
2023/11/17 02:57:58;;;;;;;9.27;5.70;;;4.80;99.90;;;;;;4114204;28;20728;-60
2023/11/17 03:00:00;;;;;;;8.50;5.87;;;4.90;99.90;;;;;;4113698;28;20039;-61
2023/11/17 03:02:02;;;;;;;11.00;6.17;;;5.00;99.90;;;;;;4113204;28;20691;-61
2023/11/17 03:04:05;;;;;;;7.80;5.53;;;5.00;99.90;;;;;;4113925;28;20610;-58
2023/11/17 03:06:06;;;;;;;7.67;6.30;;;5.00;99.90;;;;;;4114464;28;20031;-62
2023/11/17 03:08:07;;;;;;;8.53;6.03;;;4.90;99.90;;;;;;4113066;28;20352;-61
2023/11/17 03:10:09;;;;;;;13.70;6.70;;;4.80;99.90;;;;;;4108367;28;20301;-62
2023/11/17 03:12:10;;;;;;;10.17;5.83;;;4.80;99.90;;;;;;4111966;28;20173;-61
2023/11/17 03:14:11;;;;;;;10.73;6.43;;;4.70;99.90;;;;;;4098625;28;20566;-62
2023/11/17 03:16:21;;;;;;;9.27;6.03;;;4.70;99.90;;;;;;4097009;28;20265;-61
2023/11/17 03:18:26;;;;;;;8.47;5.00;;;4.80;99.90;;;;;;4113128;28;20438;-61
2023/11/17 03:20:27;;;;;;;11.30;6.00;;;4.80;99.90;;;;;;4112917;28;20117;-62
2023/11/17 03:22:28;;;;;;;7.27;5.17;;;4.90;99.90;;;;;;4114584;28;20031;-60
2023/11/17 03:24:29;;;;;;;7.07;4.40;;;5.00;99.90;;;;;;4113432;28;20022;-61
2023/11/17 03:26:31;;;;;;;7.47;4.37;;;5.10;99.90;;;;;;4114089;28;20046;-58
2023/11/17 03:28:32;;;;;;;5.90;4.13;;;5.30;99.90;;;;;;4108152;28;20090;-58
2023/11/17 03:30:33;;;;;;;5.73;4.13;;;5.40;99.90;;;;;;4097660;28;20047;-60
2023/11/17 03:32:34;;;;;;;6.53;4.03;;;5.40;99.90;;;;;;4097523;29;20086;-60
2023/11/17 03:34:35;;;;;;;7.73;4.57;;;5.50;99.90;;;;;;4097464;29;20039;-58
2023/11/17 03:36:38;;;;;;;3.90;3.30;;;5.50;99.90;;;;;;4097953;29;20467;-61
2023/11/17 03:38:40;;;;;;;5.73;4.00;;;5.50;99.90;;;;;;4096881;28;20106;-62
2023/11/17 03:40:45;;;;;;;7.00;4.30;;;5.60;99.90;;;;;;4098108;29;20039;-61
2023/11/17 03:42:46;;;;;;;4.70;3.37;;;5.60;99.90;;;;;;4096467;28;20043;-57
2023/11/17 03:44:48;;;;;;;8.37;3.77;;;5.60;99.90;;;;;;4097799;28;20082;-61
2023/11/17 03:46:54;;;;;;;5.90;4.07;;;5.60;99.90;;;;;;4096713;29;20105;-62
2023/11/17 03:48:56;;;;;;;5.50;3.90;;;5.70;99.90;;;;;;4097473;28;20058;-59
2023/11/17 03:50:57;;;;;;;6.43;4.60;;;5.70;99.90;;;;;;4096526;28;20039;-62
2023/11/17 03:52:59;;;;;;;5.80;3.30;;;5.70;99.90;;;;;;4097893;29;20047;-61
2023/11/17 03:55:00;;;;;;;5.90;3.57;;;5.80;99.90;;;;;;4096528;28;20109;-60
2023/11/17 03:57:03;;;;;;;5.40;3.77;;;5.80;99.90;;;;;;4097545;28;20110;-60
2023/11/17 03:59:04;;;;;;;5.17;3.70;;;5.80;99.90;;;;;;4096467;28;20392;-62
2023/11/17 04:01:06;;;;;;;4.57;3.67;;;5.80;99.90;;;;;;4097520;29;20090;-57
2023/11/17 04:03:08;;;;;;;5.27;3.60;;;5.80;99.90;;;;;;4096643;28;20114;-60
2023/11/17 04:05:13;;;;;;;6.23;4.00;;;5.80;99.90;;;;;;4097623;29;20087;-59
2023/11/17 04:07:14;;;;;;;8.03;4.80;;;5.70;99.90;;;;;;4111048;28;20097;-61
2023/11/17 04:09:16;;;;;;;6.50;4.70;;;5.40;99.90;;;;;;4112438;28;20054;-61
2023/11/17 04:11:18;;;;;;;6.23;4.03;;;5.20;99.90;;;;;;4113278;28;20483;-62
2023/11/17 04:13:19;;;;;;;6.60;3.77;;;5.10;99.90;;;;;;4112494;28;20097;-62
2023/11/17 04:15:20;;;;;;;5.53;4.20;;;5.20;99.90;;;;;;4113131;28;20156;-57
2023/11/17 04:17:22;;;;;;;5.07;3.90;;;5.30;99.90;;;;;;4111881;28;20087;-61
2023/11/17 04:19:23;;;;;;;5.73;3.57;;;5.40;99.90;;;;;;4113305;28;20511;-60
2023/11/17 04:21:24;;;;;;;5.10;3.47;;;5.40;99.90;;;;;;4110085;28;20094;-62
2023/11/17 04:23:25;;;;;;;5.43;3.93;;;5.50;99.90;;;;;;4113507;28;20372;-62
2023/11/17 04:25:27;;;;;;;4.50;3.60;;;5.50;99.90;;;;;;4111574;28;20111;-57
2023/11/17 04:27:28;;;;;;;4.80;3.90;;;5.40;99.90;;;;;;4113478;28;20078;-54
2023/11/17 04:29:30;;;;;;;5.43;4.17;;;5.50;99.90;;;;;;4112234;28;20536;-62
2023/11/17 04:31:32;;;;;;;5.83;3.30;;;5.50;99.90;;;;;;4113063;28;20035;-55
2023/11/17 04:33:34;;;;;;;4.43;3.13;;;5.40;99.90;;;;;;4112120;28;20034;-56
2023/11/17 04:35:35;;;;;;;4.63;3.50;;;5.40;99.90;;;;;;4104450;28;20082;-61
2023/11/17 04:37:38;;;;;;;8.10;3.77;;;5.30;99.90;;;;;;4096386;28;20031;-56
2023/11/17 04:39:39;;;;;;;6.97;3.20;;;5.20;99.90;;;;;;4096828;29;20071;-61
2023/11/17 04:41:40;;;;;;;4.53;3.63;;;5.20;99.90;;;;;;4096727;29;20031;-60
2023/11/17 04:43:42;;;;;;;3.97;3.33;;;5.20;99.90;;;;;;4101790;28;20047;-56
2023/11/17 04:45:44;;;;;;;3.73;3.10;;;5.30;99.90;;;;;;4102633;28;20526;-54
2023/11/17 04:47:45;;;;;;;3.77;2.90;;;5.30;99.90;;;;;;4089745;28;20522;-58
2023/11/17 04:49:46;;;;;;;6.03;3.97;;;5.30;99.90;;;;;;4108702;28;20051;-61
2023/11/17 04:51:47;;;;;;;6.40;3.43;;;5.40;99.90;;;;;;4095834;28;20506;-56
2023/11/17 04:53:48;;;;;;;4.93;3.17;;;5.40;99.90;;;;;;4097290;28;20039;-61
2023/11/17 04:55:52;;;;;;;5.27;2.80;;;5.40;99.90;;;;;;4095810;29;20755;-59
2023/11/17 04:57:54;;;;;;;5.07;3.13;;;5.50;99.90;;;;;;4096998;28;20078;-61
2023/11/17 04:59:56;;;;;;;4.00;2.90;;;5.60;99.90;;;;;;4098022;28;20082;-61
2023/11/17 05:01:58;;;;;;;4.87;2.77;;;5.60;99.90;;;;;;4096601;28;20106;-59
2023/11/17 05:04:00;;;;;;;3.33;2.87;;;5.70;99.90;;;;;;4095768;29;20031;-59
2023/11/17 05:06:05;;;;;;;3.90;2.57;;;5.70;99.90;;;;;;4095957;28;20094;-61
2023/11/17 05:08:06;;;;;;;2.37;2.00;;;5.80;99.90;;;;;;4095472;29;20147;-60
2023/11/17 05:10:08;;;;;;;4.27;2.63;;;5.80;99.90;;;;;;4096253;29;20542;-60
2023/11/17 05:12:09;;;;;;;3.97;2.50;;;5.90;99.90;;;;;;4096525;28;20138;-60
2023/11/17 05:14:11;;;;;;;3.13;2.37;;;5.90;99.90;;;;;;4098525;28;20086;-61
2023/11/17 05:16:14;;;;;;;3.20;2.70;;;5.90;99.90;;;;;;4098153;28;20102;-60
2023/11/17 05:18:15;;;;;;;4.73;2.20;;;5.80;99.90;;;;;;4096758;28;20507;-59
2023/11/17 05:20:18;;;;;;;3.30;2.77;;;5.90;99.90;;;;;;4097963;28;20110;-58
2023/11/17 05:22:19;;;;;;;4.73;2.30;;;6.00;99.90;;;;;;4109458;28;20039;-61
2023/11/17 05:24:20;;;;;;;3.20;2.40;;;5.90;99.90;;;;;;4111771;28;20042;-58
2023/11/17 05:26:21;;;;;;;3.20;2.70;;;5.90;99.90;;;;;;4110590;28;20105;-59
2023/11/17 05:28:24;;;;;;;3.33;2.53;;;5.90;99.90;;;;;;4112269;28;20462;-60
2023/11/17 05:30:25;;;;;;;3.67;2.20;;;5.90;99.90;;;;;;4109065;28;20082;-57
2023/11/17 05:32:27;;;;;;;3.23;2.53;;;6.00;99.90;;;;;;4111845;28;20050;-61
2023/11/17 05:34:28;;;;;;;3.60;2.70;;;6.00;99.90;;;;;;4111281;28;20039;-60
2023/11/17 05:36:29;;;;;;;3.33;2.40;;;5.90;99.90;;;;;;4094203;28;20052;-60
2023/11/17 05:38:30;;;;;;;3.77;2.40;;;5.90;99.90;;;;;;4089876;29;20051;-60
2023/11/17 05:40:33;;;;;;;2.63;2.40;;;5.90;99.90;;;;;;4095689;28;20039;-61
2023/11/17 05:42:34;;;;;;;4.07;2.60;;;5.90;99.90;;;;;;4094598;28;20467;-60
2023/11/17 05:44:35;;;;;;;3.57;2.60;;;6.00;99.90;;;;;;4089339;29;20040;-61
2023/11/17 05:46:37;;;;;;;3.80;2.73;;;5.90;99.90;;;;;;4089196;29;20562;-59
2023/11/17 05:48:38;;;;;;;18.40;6.87;;;5.80;99.90;;;;;;4092702;28;20051;-60
2023/11/17 05:50:41;;;;;;;7.87;4.77;;;5.70;99.90;;;;;;4085268;29;20043;-59
2023/11/17 05:52:43;;;;;;;5.87;3.90;;;5.40;99.90;;;;;;4094736;28;20046;-59
2023/11/17 05:54:46;;;;;;;6.47;4.57;;;5.20;99.90;;;;;;4095615;29;20055;-58
2023/11/17 05:56:47;;;;;;;5.90;4.37;;;4.90;99.90;;;;;;4094896;29;20468;-61
2023/11/17 05:58:49;;;;;;;6.73;4.73;;;4.80;99.90;;;;;;4095462;28;20035;-59
2023/11/17 06:00:50;;;;;;;6.70;4.50;;;4.60;99.90;;;;;;4092011;29;20834;-59
2023/11/17 06:02:52;;;;;;;6.70;4.07;;;4.60;99.90;;;;;;4085587;29;20563;-64
2023/11/17 06:04:53;;;;;;;5.37;3.93;;;4.50;99.90;;;;;;4095106;28;20440;-59
2023/11/17 06:06:54;;;;;;;6.70;4.50;;;4.50;99.90;;;;;;4096133;29;20534;-59
2023/11/17 06:08:56;;;;;;;8.50;4.40;;;4.50;99.90;;;;;;4093814;29;20047;-59
2023/11/17 06:10:58;;;;;;;5.80;4.00;;;4.50;99.90;;;;;;4095779;28;20035;-60
2023/11/17 06:12:59;;;;;;;13.10;4.00;;;4.50;99.90;;;;;;4097065;29;20320;-61
2023/11/17 06:15:01;;;;;;;8.03;3.87;;;4.50;99.90;;;;;;4097973;28;20475;-62
2023/11/17 06:17:08;;;;;;;5.70;4.17;;;4.50;99.90;;;;;;4097864;29;20079;-61
2023/11/17 06:19:12;;;;;;;6.20;3.67;;;4.50;99.90;;;;;;4098630;28;20047;-60
2023/11/17 06:21:13;;;;;;;5.37;3.80;;;4.60;99.90;;;;;;4098406;28;20274;-60
2023/11/17 06:23:15;;;;;;;8.67;3.73;;;4.60;99.90;;;;;;4098052;29;20324;-62
2023/11/17 06:25:16;;;;;;;6.97;3.43;;;4.60;99.90;;;;;;4097609;29;20489;-59
2023/11/17 06:27:17;;;;;;;4.40;3.50;;;4.60;99.90;;;;;;4097889;29;20614;-61
2023/11/17 06:29:21;;;;;;;5.87;3.47;;;4.70;99.90;;;;;;4099044;29;20118;-58
2023/11/17 06:31:26;;;;;;;4.67;3.03;;;4.70;99.90;;;;;;4097969;28;20281;-61
2023/11/17 06:33:28;;;;;;;4.87;3.13;;;4.70;99.90;;;;;;4106486;28;20093;-62
2023/11/17 06:35:29;;;;;;;3.40;2.67;;;4.80;99.90;;;;;;4097494;29;20262;-61
2023/11/17 06:37:30;;;;;;;6.60;2.97;;;4.80;99.90;;;;;;4097064;29;20039;-60
2023/11/17 06:39:31;;;;;;;4.30;3.13;;;4.90;99.90;;;;;;4095646;28;20036;-60
2023/11/17 06:41:33;;;;;;;5.50;3.30;;;5.00;99.90;;;;;;4111252;28;20796;-60
2023/11/17 06:43:34;;;;;;;6.13;3.33;;;5.00;99.90;;;;;;4102851;28;20086;-56
2023/11/17 06:45:36;;;;;;;5.33;2.83;;;5.10;99.90;;;;;;4097744;28;20111;-58
2023/11/17 06:47:40;;;;;;;3.90;2.80;;;5.10;99.90;;;;;;4097902;28;20289;-61
2023/11/17 06:49:42;;;;;;;5.60;2.70;;;5.20;99.90;;;;;;4109304;28;20031;-61
2023/11/17 06:51:44;;;;;;;3.87;3.00;;;5.20;99.90;;;;;;4097933;29;20747;-62
2023/11/17 06:53:45;;;;;;;5.17;3.70;;;5.20;99.90;;;;;;4098916;28;20097;-61
2023/11/17 06:55:46;;;;;;;3.20;2.90;;;5.20;99.90;;;;;;4106660;28;20483;-61
2023/11/17 06:57:47;;;;;;;4.00;2.50;;;5.20;99.90;;;;;;4097098;29;20051;-59
2023/11/17 06:59:49;;;;;;;4.27;2.77;;;5.30;99.90;;;;;;4091206;28;20036;-62
2023/11/17 07:01:50;;;;;;;5.93;2.80;;;5.40;99.90;;;;;;4080633;29;20114;-63
2023/11/17 07:03:52;;;;;;;5.63;3.27;;;5.30;99.90;;;;;;4082785;29;20434;-61
2023/11/17 07:05:54;;;;;;;3.40;2.43;;;5.20;99.90;;;;;;4081363;29;20098;-60
2023/11/17 07:07:57;;;;;;;4.63;3.20;;;5.40;99.90;;;;;;4082336;29;20039;-60
2023/11/17 07:09:58;;;;;;;8.60;3.70;;;5.40;99.90;;;;;;4096005;29;20043;-60
2023/11/17 07:12:00;;;;;;;5.97;3.57;;;5.50;99.90;;;;;;4097825;28;20123;-58
2023/11/17 07:14:07;;;;;;;5.13;3.30;;;5.50;99.90;;;;;;4097218;28;20095;-60
2023/11/17 07:16:12;;;;;;;6.87;3.40;;;5.50;99.90;;;;;;4082208;29;20499;-58
2023/11/17 07:18:13;;;;;;;6.03;3.10;;;5.40;99.90;;;;;;4081833;28;20035;-61
2023/11/17 07:20:14;;;;;;;3.63;2.80;;;5.40;99.90;;;;;;4105773;28;20113;-59
2023/11/17 07:22:16;;;;;;;5.50;3.20;;;5.30;99.90;;;;;;4100421;28;20039;-60
2023/11/17 07:24:18;;;;;;;6.30;4.03;;;5.30;99.90;;;;;;4097089;28;20031;-58
2023/11/17 07:26:20;;;;;;;7.83;3.50;;;5.30;99.90;;;;;;4101098;28;20447;-57
2023/11/17 07:28:23;;;;;;;9.27;3.43;;;5.30;99.90;;;;;;4112437;28;20081;-58
2023/11/17 07:30:24;;;;;;;5.03;3.30;;;5.30;99.90;;;;;;4113083;28;20059;-58
2023/11/17 07:32:25;;;;;;;6.87;3.40;;;5.40;99.90;;;;;;4112540;28;20114;-57
2023/11/17 07:34:26;;;;;;;4.97;3.30;;;5.40;99.90;;;;;;4113540;28;20442;-58
2023/11/17 07:36:28;;;;;;;6.30;3.87;;;5.40;99.90;;;;;;4112377;28;20118;-60
2023/11/17 07:38:29;;;;;;;4.77;3.10;;;5.50;99.90;;;;;;4113889;28;20396;-60
2023/11/17 07:40:30;;;;;;;4.10;2.97;;;5.50;99.90;;;;;;4112449;28;20052;-57
2023/11/17 07:42:33;;;;;;;5.27;3.60;;;5.50;99.90;;;;;;4113866;28;20372;-58
2023/11/17 07:44:36;;;;;;;5.90;3.17;;;5.60;99.90;;;;;;4112022;28;20031;-55
2023/11/17 07:46:37;;;;;;;3.80;2.70;;;5.70;99.90;;;;;;4113315;28;20081;-59
2023/11/17 07:48:43;;;;;;;5.93;2.80;;;5.70;99.90;;;;;;4112600;28;20600;-60
2023/11/17 07:50:44;;;;;;;3.40;2.57;;;5.70;99.90;;;;;;4113139;28;20553;-59
2023/11/17 07:52:45;;;;;;;4.33;2.30;;;5.80;99.90;;;;;;4112080;28;20051;-57
2023/11/17 07:54:46;;;;;;;3.33;2.37;;;6.00;99.90;;;;;;4113234;28;20055;-59
2023/11/17 07:56:47;;;;;;;3.67;2.33;;;6.00;99.90;;;;;;4112659;28;20027;-61
2023/11/17 07:58:49;;;;;;;4.53;3.17;;;6.00;99.90;;;;;;4113122;28;20093;-61
2023/11/17 08:00:50;;;;;;;2.60;2.13;;;6.00;99.90;;;;;;4112855;28;20035;-61
2023/11/17 08:02:52;;;;;;;3.93;2.10;;;5.90;99.90;;;;;;4112656;28;20056;-61
2023/11/17 08:04:54;;;;;;;4.77;2.30;;;5.90;99.90;;;;;;4113302;28;20852;-60
2023/11/17 08:06:55;;;;;;;3.53;2.07;;;5.90;99.90;;;;;;4111845;28;20113;-58
2023/11/17 08:08:56;;;;;;;2.97;2.10;;;5.90;99.90;;;;;;4113054;28;20105;-59
2023/11/17 08:11:01;;;;;;;4.60;2.40;;;6.00;99.90;;;;;;4111952;28;20035;-59
2023/11/17 08:13:03;;;;;;;2.97;2.47;;;6.00;99.90;;;;;;4112845;28;20046;-57
2023/11/17 08:15:06;;;;;;;11.73;4.13;;;6.00;99.90;;;;;;4111587;28;20094;-60
2023/11/17 08:17:07;;;;;;;3.47;2.30;;;6.10;99.90;;;;;;4112428;28;20101;-59
2023/11/17 08:19:08;;;;;;;8.03;2.60;;;6.10;99.90;;;;;;4111046;28;20110;-60
2023/11/17 08:21:11;;;;;;;2.53;2.00;;;6.10;99.90;;;;;;4112485;28;20454;-59
2023/11/17 08:23:14;;;;;;;3.40;2.20;;;6.10;99.90;;;;;;4111949;28;20027;-60
2023/11/17 08:25:16;;;;;;;4.10;1.67;;;6.10;99.90;;;;;;4113187;28;20036;-60
2023/11/17 08:27:21;;;;;;;3.80;2.63;;;6.20;99.90;;;;;;4112010;28;20313;-60
2023/11/17 08:29:23;;;;;;;5.27;2.60;;;6.30;99.90;;;;;;4112539;28;20046;-60
2023/11/17 08:31:24;;;;;;;3.00;2.13;;;6.30;99.90;;;;;;4112067;28;20047;-59
2023/11/17 08:33:25;;;;;;;4.43;2.57;;;6.30;99.90;;;;;;4112374;28;20089;-61
2023/11/17 08:35:26;;;;;;;3.23;2.13;;;6.40;99.90;;;;;;4110606;28;20055;-58
2023/11/17 08:37:32;;;;;;;5.90;2.37;;;6.40;99.90;;;;;;4112270;28;20050;-59
2023/11/17 08:39:34;;;;;;;4.20;1.80;;;6.40;99.90;;;;;;4112348;28;20503;-58
2023/11/17 08:41:35;;;;;;;2.57;1.80;;;6.50;99.90;;;;;;4111412;28;20098;-59
2023/11/17 08:43:39;;;;;;;5.20;2.20;;;6.60;99.90;;;;;;4112428;28;20043;-57
2023/11/17 08:45:40;;;;;;;4.67;2.20;;;6.60;99.90;;;;;;4111724;28;20027;-57
2023/11/17 08:47:45;;;;;;;2.73;2.00;;;6.60;99.90;;;;;;4112711;28;20023;-57
2023/11/17 08:49:47;;;;;;;3.83;2.00;;;6.60;99.90;;;;;;4110782;28;20102;-60
2023/11/17 08:51:48;;;;;;;2.00;1.80;;;6.60;99.90;;;;;;4112932;28;20039;-58
2023/11/17 08:53:50;;;;;;;6.13;2.00;;;6.70;99.90;;;;;;4110953;28;20046;-60
2023/11/17 08:55:51;;;;;;;5.13;1.97;;;6.80;99.90;;;;;;4112763;28;20039;-55
2023/11/17 08:57:53;;;;;;;2.00;1.63;;;6.80;99.90;;;;;;4111128;28;20047;-60
2023/11/17 08:59:55;;;;;;;2.60;1.93;;;6.90;99.90;;;;;;4112833;28;20383;-59
2023/11/17 09:01:56;;;;;;;2.57;2.00;;;6.80;99.90;;;;;;4111159;28;20080;-58
2023/11/17 09:03:57;;;;;;;1.80;1.70;;;6.80;99.90;;;;;;4112187;28;20068;-58
2023/11/17 09:05:59;;;;;;;10.83;2.30;;;6.80;99.90;;;;;;4111722;28;20074;-58
2023/11/17 09:08:01;;;;;;;2.53;2.10;;;6.80;99.90;;;;;;4111502;28;20084;-61
2023/11/17 09:10:02;;;;;;;2.83;1.90;;;6.80;99.90;;;;;;4111527;28;20101;-59
2023/11/17 09:12:05;;;;;;;3.57;2.30;;;6.80;99.90;;;;;;4111791;28;20089;-61
2023/11/17 09:14:06;;;;;;;2.93;2.30;;;6.80;99.90;;;;;;4111880;28;20026;-57
2023/11/17 09:16:08;;;;;;;5.63;2.00;;;6.80;99.90;;;;;;4110443;28;20074;-59
2023/11/17 09:18:09;;;;;;;2.53;2.33;;;6.80;99.90;;;;;;4112413;28;20445;-59
2023/11/17 09:20:13;;;;;;;6.27;2.20;;;6.90;99.90;;;;;;4110700;28;20035;-62
2023/11/17 09:22:14;;;;;;;3.37;2.20;;;7.00;99.90;;;;;;4110604;28;20030;-56
2023/11/17 09:24:15;;;;;;;2.87;1.90;;;7.00;99.90;;;;;;4110507;28;20039;-58
2023/11/17 09:26:19;;;;;;;2.03;1.60;;;7.00;99.90;;;;;;4112145;28;20550;-58
2023/11/17 09:28:20;;;;;;;2.93;1.80;;;7.00;99.90;;;;;;4110510;28;20039;-58
2023/11/17 09:30:22;;;;;;;4.70;2.23;;;7.10;99.90;;;;;;4111472;28;20082;-59
2023/11/17 09:32:23;;;;;;;6.83;2.20;;;7.20;99.90;;;;;;4111005;28;20089;-60
2023/11/17 09:34:24;;;;;;;3.63;1.87;;;7.20;99.90;;;;;;4112038;28;20376;-60
2023/11/17 09:36:26;;;;;;;2.60;1.70;;;7.30;99.90;;;;;;4110995;28;20147;-60
2023/11/17 09:38:28;;;;;;;4.53;2.00;;;7.50;99.90;;;;;;4111405;28;20101;-58
2023/11/17 09:40:33;;;;;;;2.87;2.20;;;7.60;99.90;;;;;;4111085;28;20145;-57
2023/11/17 09:42:36;;;;;;;3.83;1.97;;;7.70;99.90;;;;;;4110983;28;20046;-59
2023/11/17 09:44:39;;;;;;;5.27;1.90;;;7.70;99.90;;;;;;4111078;28;20491;-59
2023/11/17 09:46:57;;;;;;;6.13;1.80;;;7.70;99.90;;;;;;4110739;28;20368;-60
2023/11/17 09:49:02;;;;;;;2.47;1.50;;;7.70;99.90;;;;;;4111274;28;20097;-60
2023/11/17 09:51:04;;;;;;;3.27;1.83;;;7.70;99.90;;;;;;4111564;28;20451;-61
2023/11/17 09:53:09;;;;;;;2.47;2.07;;;7.70;99.90;;;;;;4111699;28;20022;-59
2023/11/17 09:55:13;;;;;;;6.63;2.40;;;7.70;99.90;;;;;;4111004;28;20070;-61
2023/11/17 09:57:18;;;;;;;5.43;2.70;;;7.70;99.90;;;;;;4111682;28;20043;-59
2023/11/17 09:59:22;;;;;;;2.77;1.70;;;7.80;99.90;;;;;;4110490;28;20443;-60
2023/11/17 10:01:28;;;;;;;2.80;2.10;;;7.70;99.90;;;;;;4111360;28;20051;-55
2023/11/17 10:03:30;;;;;;;3.97;1.87;;;7.70;99.90;;;;;;4111163;28;20077;-56
2023/11/17 10:05:33;;;;;;;2.47;1.70;;;7.70;99.90;;;;;;4111539;28;20043;-58
2023/11/17 10:07:34;;;;;;;3.43;2.07;;;7.70;99.90;;;;;;4110881;28;20038;-58
2023/11/17 10:09:39;;;;;;;2.57;1.60;;;7.80;99.90;;;;;;4111970;28;20038;-59
2023/11/17 10:11:44;;;;;;;3.03;1.97;;;7.90;99.90;;;;;;4110439;28;20078;-60
2023/11/17 10:13:47;;;;;;;2.63;1.80;;;7.90;99.90;;;;;;4111671;28;20035;-60
2023/11/17 10:15:52;;;;;;;3.73;1.73;;;8.00;99.90;;;;;;4110444;28;20052;-57
2023/11/17 10:18:05;;;;;;;3.03;1.67;;;8.00;99.90;;;;;;4111844;28;20544;-59
2023/11/17 10:20:17;;;;;;;2.40;1.80;;;8.00;99.90;;;;;;4110816;28;20082;-59
2023/11/17 10:22:19;;;;;;;4.00;1.90;;;8.10;99.90;;;;;;4111307;28;20089;-58
2023/11/17 10:24:21;;;;;;;2.90;1.60;;;8.00;99.90;;;;;;4110115;28;20027;-59
2023/11/17 10:26:22;;;;;;;1.80;1.50;;;8.00;99.90;;;;;;4111884;28;20043;-60
2023/11/17 10:28:26;;;;;;;1.70;1.60;;;8.10;99.90;;;;;;4110795;28;20081;-59
2023/11/17 10:30:32;;;;;;;2.73;1.17;;;8.10;99.90;;;;;;4110903;28;20395;-59
2023/11/17 10:32:39;;;;;;;2.30;1.80;;;8.10;99.90;;;;;;4110958;28;20062;-58
2023/11/17 10:34:41;;;;;;;1.37;1.20;;;8.10;99.90;;;;;;4110444;28;20043;-60
2023/11/17 10:37:04;;;;;;;2.60;1.63;;;8.10;99.90;;;;;;4110286;28;20450;-59
2023/11/17 10:39:10;;;;;;;2.07;1.87;;;8.10;99.90;;;;;;4111180;28;20082;-61
2023/11/17 10:41:32;;;;;;;2.00;1.63;;;8.00;99.90;;;;;;4111015;28;20023;-61
2023/11/17 10:43:49;;;;;;;2.93;1.33;;;8.00;99.90;;;;;;4111556;28;20034;-60
2023/11/17 10:45:59;;;;;;;1.50;1.40;;;8.00;99.90;;;;;;4109957;28;20598;-60
2023/11/17 10:48:01;;;;;;;1.87;1.50;;;8.00;99.90;;;;;;4111035;28;20549;-61